sensor_id;sensor_type;location;lat;lon;timestamp;P1;durP1;ratioP1;P2;durP2;ratioP2
11522;SDS011;40093;43.224;27.910;2022-12-24T00:01:29;67.80;;;47.17;;
11522;SDS011;40093;43.224;27.910;2022-12-24T00:03:56;70.23;;;48.10;;
11522;SDS011;40093;43.224;27.910;2022-12-24T00:06:23;74.93;;;49.17;;
11522;SDS011;40093;43.224;27.910;2022-12-24T00:08:50;76.77;;;51.37;;
11522;SDS011;40093;43.224;27.910;2022-12-24T00:11:18;91.10;;;55.47;;
11522;SDS011;40093;43.224;27.910;2022-12-24T00:13:45;150.90;;;74.20;;
11522;SDS011;40093;43.224;27.910;2022-12-24T00:16:13;116.77;;;61.33;;
11522;SDS011;40093;43.224;27.910;2022-12-24T00:18:40;166.17;;;76.83;;
11522;SDS011;40093;43.224;27.910;2022-12-24T00:21:07;129.63;;;69.50;;
11522;SDS011;40093;43.224;27.910;2022-12-24T00:23:34;97.37;;;59.37;;
11522;SDS011;40093;43.224;27.910;2022-12-24T00:26:01;76.47;;;51.27;;
11522;SDS011;40093;43.224;27.910;2022-12-24T00:28:28;71.23;;;49.87;;
11522;SDS011;40093;43.224;27.910;2022-12-24T00:30:55;67.90;;;48.80;;
11522;SDS011;40093;43.224;27.910;2022-12-24T00:33:23;72.53;;;49.77;;
11522;SDS011;40093;43.224;27.910;2022-12-24T00:35:50;70.03;;;48.57;;
11522;SDS011;40093;43.224;27.910;2022-12-24T00:38:18;68.30;;;48.43;;
11522;SDS011;40093;43.224;27.910;2022-12-24T00:40:45;67.60;;;46.50;;
11522;SDS011;40093;43.224;27.910;2022-12-24T00:43:12;67.47;;;47.60;;
11522;SDS011;40093;43.224;27.910;2022-12-24T00:45:39;68.30;;;47.33;;
11522;SDS011;40093;43.224;27.910;2022-12-24T00:48:05;64.13;;;46.30;;
11522;SDS011;40093;43.224;27.910;2022-12-24T00:50:34;71.37;;;47.67;;
11522;SDS011;40093;43.224;27.910;2022-12-24T00:53:00;65.50;;;47.60;;
11522;SDS011;40093;43.224;27.910;2022-12-24T00:55:27;64.77;;;45.87;;
11522;SDS011;40093;43.224;27.910;2022-12-24T00:57:54;59.97;;;44.50;;
11522;SDS011;40093;43.224;27.910;2022-12-24T01:00:21;57.57;;;42.43;;
11522;SDS011;40093;43.224;27.910;2022-12-24T01:02:48;53.53;;;38.60;;
11522;SDS011;40093;43.224;27.910;2022-12-24T01:05:15;57.87;;;41.70;;
11522;SDS011;40093;43.224;27.910;2022-12-24T01:07:46;62.20;;;43.53;;
11522;SDS011;40093;43.224;27.910;2022-12-24T01:10:14;59.47;;;42.33;;
11522;SDS011;40093;43.224;27.910;2022-12-24T01:12:42;57.20;;;41.20;;
11522;SDS011;40093;43.224;27.910;2022-12-24T01:15:11;58.00;;;39.53;;
11522;SDS011;40093;43.224;27.910;2022-12-24T01:17:39;56.97;;;40.83;;
11522;SDS011;40093;43.224;27.910;2022-12-24T01:20:09;59.43;;;40.80;;
11522;SDS011;40093;43.224;27.910;2022-12-24T01:22:38;57.70;;;41.97;;
11522;SDS011;40093;43.224;27.910;2022-12-24T01:25:09;58.43;;;43.67;;
11522;SDS011;40093;43.224;27.910;2022-12-24T01:27:36;62.93;;;42.70;;
11522;SDS011;40093;43.224;27.910;2022-12-24T01:30:03;63.40;;;46.03;;
11522;SDS011;40093;43.224;27.910;2022-12-24T01:32:31;64.97;;;47.70;;
11522;SDS011;40093;43.224;27.910;2022-12-24T01:34:58;75.37;;;53.43;;
11522;SDS011;40093;43.224;27.910;2022-12-24T01:37:25;83.23;;;55.77;;
11522;SDS011;40093;43.224;27.910;2022-12-24T01:39:52;82.80;;;56.73;;
11522;SDS011;40093;43.224;27.910;2022-12-24T01:42:43;82.73;;;56.83;;
11522;SDS011;40093;43.224;27.910;2022-12-24T01:45:37;87.20;;;59.70;;
11522;SDS011;40093;43.224;27.910;2022-12-24T01:48:11;105.23;;;72.13;;
11522;SDS011;40093;43.224;27.910;2022-12-24T01:50:42;113.03;;;77.83;;
11522;SDS011;40093;43.224;27.910;2022-12-24T01:53:09;112.77;;;78.77;;
11522;SDS011;40093;43.224;27.910;2022-12-24T01:55:38;106.17;;;77.63;;
11522;SDS011;40093;43.224;27.910;2022-12-24T01:58:08;108.00;;;74.97;;
11522;SDS011;40093;43.224;27.910;2022-12-24T02:00:38;109.43;;;72.93;;
11522;SDS011;40093;43.224;27.910;2022-12-24T02:03:05;110.27;;;73.37;;
11522;SDS011;40093;43.224;27.910;2022-12-24T02:05:33;100.20;;;70.03;;
11522;SDS011;40093;43.224;27.910;2022-12-24T02:08:04;107.30;;;72.03;;
11522;SDS011;40093;43.224;27.910;2022-12-24T02:10:33;99.57;;;69.57;;
11522;SDS011;40093;43.224;27.910;2022-12-24T02:13:00;95.83;;;67.27;;
11522;SDS011;40093;43.224;27.910;2022-12-24T02:15:33;97.53;;;64.43;;
11522;SDS011;40093;43.224;27.910;2022-12-24T02:18:13;88.80;;;61.97;;
11522;SDS011;40093;43.224;27.910;2022-12-24T02:29:58;73.60;;;50.73;;
11522;SDS011;40093;43.224;27.910;2022-12-24T02:32:42;68.23;;;48.90;;
11522;SDS011;40093;43.224;27.910;2022-12-24T02:35:17;71.63;;;48.50;;
11522;SDS011;40093;43.224;27.910;2022-12-24T02:37:49;66.47;;;46.07;;
11522;SDS011;40093;43.224;27.910;2022-12-24T02:40:21;67.40;;;47.00;;
11522;SDS011;40093;43.224;27.910;2022-12-24T02:42:52;69.40;;;47.73;;
11522;SDS011;40093;43.224;27.910;2022-12-24T02:45:26;65.67;;;45.53;;
11522;SDS011;40093;43.224;27.910;2022-12-24T02:47:56;63.67;;;45.50;;
11522;SDS011;40093;43.224;27.910;2022-12-24T02:50:23;68.37;;;47.27;;
11522;SDS011;40093;43.224;27.910;2022-12-24T02:52:51;62.93;;;46.00;;
11522;SDS011;40093;43.224;27.910;2022-12-24T02:55:18;68.60;;;48.10;;
11522;SDS011;40093;43.224;27.910;2022-12-24T02:58:04;66.80;;;47.33;;
11522;SDS011;40093;43.224;27.910;2022-12-24T03:00:46;69.93;;;47.50;;
11522;SDS011;40093;43.224;27.910;2022-12-24T03:03:26;67.73;;;49.17;;
11522;SDS011;40093;43.224;27.910;2022-12-24T03:06:03;67.20;;;48.80;;
11522;SDS011;40093;43.224;27.910;2022-12-24T03:08:37;65.53;;;48.43;;
11522;SDS011;40093;43.224;27.910;2022-12-24T03:11:09;65.20;;;46.53;;
11522;SDS011;40093;43.224;27.910;2022-12-24T03:13:38;67.53;;;47.37;;
11522;SDS011;40093;43.224;27.910;2022-12-24T03:16:10;68.63;;;47.00;;
11522;SDS011;40093;43.224;27.910;2022-12-24T03:18:41;63.40;;;46.33;;
11522;SDS011;40093;43.224;27.910;2022-12-24T03:21:12;67.07;;;46.47;;
11522;SDS011;40093;43.224;27.910;2022-12-24T03:23:46;69.10;;;46.53;;
11522;SDS011;40093;43.224;27.910;2022-12-24T03:26:13;67.07;;;46.87;;
11522;SDS011;40093;43.224;27.910;2022-12-24T03:28:43;63.37;;;46.07;;
11522;SDS011;40093;43.224;27.910;2022-12-24T03:31:12;63.30;;;46.93;;
11522;SDS011;40093;43.224;27.910;2022-12-24T03:33:40;63.23;;;46.40;;
11522;SDS011;40093;43.224;27.910;2022-12-24T03:36:08;60.70;;;43.87;;
11522;SDS011;40093;43.224;27.910;2022-12-24T03:38:38;61.40;;;44.17;;
11522;SDS011;40093;43.224;27.910;2022-12-24T03:41:06;59.77;;;43.10;;
11522;SDS011;40093;43.224;27.910;2022-12-24T03:43:33;58.57;;;44.03;;
11522;SDS011;40093;43.224;27.910;2022-12-24T03:46:02;60.77;;;43.53;;
11522;SDS011;40093;43.224;27.910;2022-12-24T03:48:33;60.43;;;44.37;;
11522;SDS011;40093;43.224;27.910;2022-12-24T03:51:01;56.70;;;42.77;;
11522;SDS011;40093;43.224;27.910;2022-12-24T03:53:27;56.97;;;42.50;;
11522;SDS011;40093;43.224;27.910;2022-12-24T03:55:54;54.67;;;41.50;;
11522;SDS011;40093;43.224;27.910;2022-12-24T03:58:21;59.60;;;43.03;;
11522;SDS011;40093;43.224;27.910;2022-12-24T04:00:48;59.33;;;43.97;;
11522;SDS011;40093;43.224;27.910;2022-12-24T04:03:15;62.73;;;44.23;;
11522;SDS011;40093;43.224;27.910;2022-12-24T04:05:43;61.50;;;45.93;;
11522;SDS011;40093;43.224;27.910;2022-12-24T04:08:10;59.23;;;44.30;;
11522;SDS011;40093;43.224;27.910;2022-12-24T04:10:37;61.87;;;44.90;;
11522;SDS011;40093;43.224;27.910;2022-12-24T04:13:04;62.17;;;43.27;;
11522;SDS011;40093;43.224;27.910;2022-12-24T04:15:31;62.60;;;43.63;;
11522;SDS011;40093;43.224;27.910;2022-12-24T04:17:58;54.87;;;41.50;;
11522;SDS011;40093;43.224;27.910;2022-12-24T04:20:24;57.27;;;41.77;;
11522;SDS011;40093;43.224;27.910;2022-12-24T04:22:53;55.77;;;41.67;;
11522;SDS011;40093;43.224;27.910;2022-12-24T04:25:20;57.60;;;41.27;;
11522;SDS011;40093;43.224;27.910;2022-12-24T04:27:46;53.50;;;40.30;;
11522;SDS011;40093;43.224;27.910;2022-12-24T04:30:13;60.07;;;41.57;;
11522;SDS011;40093;43.224;27.910;2022-12-24T04:32:40;52.23;;;39.60;;
11522;SDS011;40093;43.224;27.910;2022-12-24T04:35:07;52.97;;;38.37;;
11522;SDS011;40093;43.224;27.910;2022-12-24T04:37:34;54.00;;;39.07;;
11522;SDS011;40093;43.224;27.910;2022-12-24T04:40:03;57.33;;;40.23;;
11522;SDS011;40093;43.224;27.910;2022-12-24T04:42:31;56.27;;;40.40;;
11522;SDS011;40093;43.224;27.910;2022-12-24T04:44:58;56.80;;;38.80;;
11522;SDS011;40093;43.224;27.910;2022-12-24T04:47:25;55.63;;;38.87;;
11522;SDS011;40093;43.224;27.910;2022-12-24T04:49:52;51.50;;;38.50;;
11522;SDS011;40093;43.224;27.910;2022-12-24T04:52:19;54.07;;;38.80;;
11522;SDS011;40093;43.224;27.910;2022-12-24T04:54:46;54.07;;;38.33;;
11522;SDS011;40093;43.224;27.910;2022-12-24T04:57:14;50.53;;;36.53;;
11522;SDS011;40093;43.224;27.910;2022-12-24T04:59:41;51.87;;;37.00;;
11522;SDS011;40093;43.224;27.910;2022-12-24T05:02:08;53.57;;;37.83;;
11522;SDS011;40093;43.224;27.910;2022-12-24T05:04:35;86.80;;;58.67;;
11522;SDS011;40093;43.224;27.910;2022-12-24T05:07:02;105.07;;;72.83;;
11522;SDS011;40093;43.224;27.910;2022-12-24T05:09:29;55.00;;;40.27;;
11522;SDS011;40093;43.224;27.910;2022-12-24T05:11:56;52.53;;;37.93;;
11522;SDS011;40093;43.224;27.910;2022-12-24T05:14:24;55.07;;;37.87;;
11522;SDS011;40093;43.224;27.910;2022-12-24T05:16:51;49.53;;;37.20;;
11522;SDS011;40093;43.224;27.910;2022-12-24T05:19:18;49.63;;;36.50;;
11522;SDS011;40093;43.224;27.910;2022-12-24T05:21:44;49.73;;;37.03;;
11522;SDS011;40093;43.224;27.910;2022-12-24T05:24:31;43.47;;;34.30;;
11522;SDS011;40093;43.224;27.910;2022-12-24T05:27:16;51.43;;;36.00;;
11522;SDS011;40093;43.224;27.910;2022-12-24T05:29:44;54.07;;;36.97;;
11522;SDS011;40093;43.224;27.910;2022-12-24T05:32:11;55.40;;;38.30;;
11522;SDS011;40093;43.224;27.910;2022-12-24T05:34:38;63.03;;;44.73;;
11522;SDS011;40093;43.224;27.910;2022-12-24T05:37:05;57.97;;;40.97;;
11522;SDS011;40093;43.224;27.910;2022-12-24T05:39:32;64.43;;;41.57;;
11522;SDS011;40093;43.224;27.910;2022-12-24T05:41:58;57.97;;;41.23;;
11522;SDS011;40093;43.224;27.910;2022-12-24T05:44:25;57.23;;;41.30;;
11522;SDS011;40093;43.224;27.910;2022-12-24T05:46:54;54.73;;;40.20;;
11522;SDS011;40093;43.224;27.910;2022-12-24T05:49:20;63.37;;;41.33;;
11522;SDS011;40093;43.224;27.910;2022-12-24T05:51:47;60.33;;;40.63;;
11522;SDS011;40093;43.224;27.910;2022-12-24T05:54:14;61.47;;;41.87;;
11522;SDS011;40093;43.224;27.910;2022-12-24T05:56:41;55.00;;;39.57;;
11522;SDS011;40093;43.224;27.910;2022-12-24T05:59:08;56.60;;;39.97;;
11522;SDS011;40093;43.224;27.910;2022-12-24T06:01:35;54.53;;;38.33;;
11522;SDS011;40093;43.224;27.910;2022-12-24T06:04:03;56.03;;;38.87;;
11522;SDS011;40093;43.224;27.910;2022-12-24T06:06:30;53.83;;;37.43;;
11522;SDS011;40093;43.224;27.910;2022-12-24T06:08:57;53.13;;;37.00;;
11522;SDS011;40093;43.224;27.910;2022-12-24T06:11:25;50.90;;;35.90;;
11522;SDS011;40093;43.224;27.910;2022-12-24T06:13:53;47.80;;;34.83;;
11522;SDS011;40093;43.224;27.910;2022-12-24T06:16:20;50.43;;;34.87;;
11522;SDS011;40093;43.224;27.910;2022-12-24T06:18:48;52.10;;;35.63;;
11522;SDS011;40093;43.224;27.910;2022-12-24T06:21:16;49.70;;;34.13;;
11522;SDS011;40093;43.224;27.910;2022-12-24T06:23:44;48.80;;;34.70;;
11522;SDS011;40093;43.224;27.910;2022-12-24T06:26:11;48.30;;;33.53;;
11522;SDS011;40093;43.224;27.910;2022-12-24T06:28:40;48.67;;;33.90;;
11522;SDS011;40093;43.224;27.910;2022-12-24T06:31:08;44.23;;;32.97;;
11522;SDS011;40093;43.224;27.910;2022-12-24T06:33:38;45.33;;;34.17;;
11522;SDS011;40093;43.224;27.910;2022-12-24T06:36:05;47.03;;;34.13;;
11522;SDS011;40093;43.224;27.910;2022-12-24T06:38:34;46.93;;;34.63;;
11522;SDS011;40093;43.224;27.910;2022-12-24T06:41:04;46.03;;;33.83;;
11522;SDS011;40093;43.224;27.910;2022-12-24T06:43:32;43.60;;;32.93;;
11522;SDS011;40093;43.224;27.910;2022-12-24T06:46:00;43.93;;;33.20;;
11522;SDS011;40093;43.224;27.910;2022-12-24T06:48:27;43.97;;;32.43;;
11522;SDS011;40093;43.224;27.910;2022-12-24T06:50:54;42.83;;;32.27;;
11522;SDS011;40093;43.224;27.910;2022-12-24T06:53:21;41.87;;;32.13;;
11522;SDS011;40093;43.224;27.910;2022-12-24T06:55:49;44.17;;;32.90;;
11522;SDS011;40093;43.224;27.910;2022-12-24T06:58:16;46.07;;;33.23;;
11522;SDS011;40093;43.224;27.910;2022-12-24T07:00:43;47.67;;;34.17;;
11522;SDS011;40093;43.224;27.910;2022-12-24T07:03:12;49.97;;;36.90;;
11522;SDS011;40093;43.224;27.910;2022-12-24T07:05:39;47.97;;;37.13;;
11522;SDS011;40093;43.224;27.910;2022-12-24T07:08:07;46.10;;;36.00;;
11522;SDS011;40093;43.224;27.910;2022-12-24T07:10:34;45.60;;;35.70;;
11522;SDS011;40093;43.224;27.910;2022-12-24T07:13:02;51.03;;;35.53;;
11522;SDS011;40093;43.224;27.910;2022-12-24T07:15:29;44.00;;;34.70;;
11522;SDS011;40093;43.224;27.910;2022-12-24T07:17:56;46.47;;;35.17;;
11522;SDS011;40093;43.224;27.910;2022-12-24T07:20:23;44.30;;;33.63;;
11522;SDS011;40093;43.224;27.910;2022-12-24T07:22:50;43.70;;;34.20;;
11522;SDS011;40093;43.224;27.910;2022-12-24T07:25:17;46.83;;;38.63;;
11522;SDS011;40093;43.224;27.910;2022-12-24T07:27:43;81.80;;;56.33;;
11522;SDS011;40093;43.224;27.910;2022-12-24T07:30:12;74.53;;;53.83;;
11522;SDS011;40093;43.224;27.910;2022-12-24T07:32:39;49.40;;;36.67;;
11522;SDS011;40093;43.224;27.910;2022-12-24T07:35:06;44.77;;;37.33;;
11522;SDS011;40093;43.224;27.910;2022-12-24T07:37:33;47.37;;;33.60;;
11522;SDS011;40093;43.224;27.910;2022-12-24T07:40:00;39.43;;;32.87;;
11522;SDS011;40093;43.224;27.910;2022-12-24T07:42:30;39.53;;;31.50;;
11522;SDS011;40093;43.224;27.910;2022-12-24T07:45:03;37.27;;;30.63;;
11522;SDS011;40093;43.224;27.910;2022-12-24T07:47:32;39.77;;;30.30;;
11522;SDS011;40093;43.224;27.910;2022-12-24T07:49:59;45.23;;;33.70;;
11522;SDS011;40093;43.224;27.910;2022-12-24T07:52:26;43.93;;;34.70;;
11522;SDS011;40093;43.224;27.910;2022-12-24T07:54:53;40.97;;;32.83;;
11522;SDS011;40093;43.224;27.910;2022-12-24T07:57:20;40.80;;;32.23;;
11522;SDS011;40093;43.224;27.910;2022-12-24T07:59:47;42.57;;;33.27;;
11522;SDS011;40093;43.224;27.910;2022-12-24T08:02:14;41.10;;;33.93;;
11522;SDS011;40093;43.224;27.910;2022-12-24T08:04:42;37.83;;;33.03;;
11522;SDS011;40093;43.224;27.910;2022-12-24T08:07:09;43.37;;;33.63;;
11522;SDS011;40093;43.224;27.910;2022-12-24T08:09:36;40.80;;;32.40;;
11522;SDS011;40093;43.224;27.910;2022-12-24T08:12:04;40.73;;;33.30;;
11522;SDS011;40093;43.224;27.910;2022-12-24T08:14:31;41.90;;;30.90;;
11522;SDS011;40093;43.224;27.910;2022-12-24T08:16:58;42.50;;;29.83;;
11522;SDS011;40093;43.224;27.910;2022-12-24T08:19:25;38.37;;;30.43;;
11522;SDS011;40093;43.224;27.910;2022-12-24T08:21:53;45.00;;;34.57;;
11522;SDS011;40093;43.224;27.910;2022-12-24T08:24:20;43.73;;;32.10;;
11522;SDS011;40093;43.224;27.910;2022-12-24T08:26:47;42.00;;;33.37;;
11522;SDS011;40093;43.224;27.910;2022-12-24T08:29:13;44.47;;;34.70;;
11522;SDS011;40093;43.224;27.910;2022-12-24T08:31:40;45.10;;;34.43;;
11522;SDS011;40093;43.224;27.910;2022-12-24T08:34:07;43.57;;;34.47;;
11522;SDS011;40093;43.224;27.910;2022-12-24T08:36:36;44.37;;;34.33;;
11522;SDS011;40093;43.224;27.910;2022-12-24T08:39:04;46.07;;;34.97;;
11522;SDS011;40093;43.224;27.910;2022-12-24T08:41:33;46.67;;;36.57;;
11522;SDS011;40093;43.224;27.910;2022-12-24T08:44:00;46.70;;;34.00;;
11522;SDS011;40093;43.224;27.910;2022-12-24T08:46:27;44.50;;;32.73;;
11522;SDS011;40093;43.224;27.910;2022-12-24T08:48:54;41.97;;;33.83;;
11522;SDS011;40093;43.224;27.910;2022-12-24T08:51:21;46.83;;;34.33;;
11522;SDS011;40093;43.224;27.910;2022-12-24T08:53:48;41.57;;;33.20;;
11522;SDS011;40093;43.224;27.910;2022-12-24T08:56:16;45.87;;;32.63;;
11522;SDS011;40093;43.224;27.910;2022-12-24T08:58:43;44.27;;;32.30;;
11522;SDS011;40093;43.224;27.910;2022-12-24T09:01:11;50.17;;;35.80;;
11522;SDS011;40093;43.224;27.910;2022-12-24T09:03:39;50.50;;;37.00;;
11522;SDS011;40093;43.224;27.910;2022-12-24T09:06:06;57.60;;;39.43;;
11522;SDS011;40093;43.224;27.910;2022-12-24T09:08:34;48.97;;;37.77;;
11522;SDS011;40093;43.224;27.910;2022-12-24T09:11:02;44.93;;;32.47;;
11522;SDS011;40093;43.224;27.910;2022-12-24T09:13:31;39.43;;;30.13;;
11522;SDS011;40093;43.224;27.910;2022-12-24T09:15:58;44.37;;;32.50;;
11522;SDS011;40093;43.224;27.910;2022-12-24T09:18:25;35.50;;;27.67;;
11522;SDS011;40093;43.224;27.910;2022-12-24T09:20:57;35.33;;;26.87;;
11522;SDS011;40093;43.224;27.910;2022-12-24T09:23:25;34.43;;;26.77;;
11522;SDS011;40093;43.224;27.910;2022-12-24T09:25:52;33.00;;;24.17;;
11522;SDS011;40093;43.224;27.910;2022-12-24T09:28:19;27.77;;;22.47;;
11522;SDS011;40093;43.224;27.910;2022-12-24T09:30:54;27.43;;;21.13;;
11522;SDS011;40093;43.224;27.910;2022-12-24T09:33:22;30.33;;;22.23;;
11522;SDS011;40093;43.224;27.910;2022-12-24T09:35:49;27.00;;;19.27;;
11522;SDS011;40093;43.224;27.910;2022-12-24T09:38:16;26.43;;;21.67;;
11522;SDS011;40093;43.224;27.910;2022-12-24T09:40:43;28.07;;;20.80;;
11522;SDS011;40093;43.224;27.910;2022-12-24T09:43:12;28.17;;;20.10;;
11522;SDS011;40093;43.224;27.910;2022-12-24T09:45:43;27.27;;;19.00;;
11522;SDS011;40093;43.224;27.910;2022-12-24T09:48:17;27.07;;;19.73;;
11522;SDS011;40093;43.224;27.910;2022-12-24T09:50:48;28.80;;;21.60;;
11522;SDS011;40093;43.224;27.910;2022-12-24T09:53:21;25.60;;;18.63;;
11522;SDS011;40093;43.224;27.910;2022-12-24T09:55:55;27.87;;;19.03;;
11522;SDS011;40093;43.224;27.910;2022-12-24T09:58:26;26.43;;;19.63;;
11522;SDS011;40093;43.224;27.910;2022-12-24T10:00:56;24.67;;;19.43;;
11522;SDS011;40093;43.224;27.910;2022-12-24T10:03:24;21.90;;;18.43;;
11522;SDS011;40093;43.224;27.910;2022-12-24T10:05:55;23.73;;;18.80;;
11522;SDS011;40093;43.224;27.910;2022-12-24T10:08:33;22.23;;;18.73;;
11522;SDS011;40093;43.224;27.910;2022-12-24T10:11:10;29.57;;;21.07;;
11522;SDS011;40093;43.224;27.910;2022-12-24T10:13:48;22.63;;;19.00;;
11522;SDS011;40093;43.224;27.910;2022-12-24T10:16:23;25.10;;;20.03;;
11522;SDS011;40093;43.224;27.910;2022-12-24T10:19:01;23.97;;;17.73;;
11522;SDS011;40093;43.224;27.910;2022-12-24T10:21:36;25.77;;;18.43;;
11522;SDS011;40093;43.224;27.910;2022-12-24T10:24:11;31.00;;;22.87;;
11522;SDS011;40093;43.224;27.910;2022-12-24T10:26:49;27.23;;;19.90;;
11522;SDS011;40093;43.224;27.910;2022-12-24T10:29:22;29.10;;;22.63;;
11522;SDS011;40093;43.224;27.910;2022-12-24T10:31:53;30.03;;;24.90;;
11522;SDS011;40093;43.224;27.910;2022-12-24T10:34:28;31.37;;;25.23;;
11522;SDS011;40093;43.224;27.910;2022-12-24T10:36:59;29.07;;;23.43;;
11522;SDS011;40093;43.224;27.910;2022-12-24T10:39:28;31.30;;;25.47;;
11522;SDS011;40093;43.224;27.910;2022-12-24T10:41:55;34.83;;;25.93;;
11522;SDS011;40093;43.224;27.910;2022-12-24T10:44:26;27.70;;;22.50;;
11522;SDS011;40093;43.224;27.910;2022-12-24T10:46:56;26.20;;;23.37;;
11522;SDS011;40093;43.224;27.910;2022-12-24T10:49:25;35.57;;;25.43;;
11522;SDS011;40093;43.224;27.910;2022-12-24T10:51:59;27.90;;;22.13;;
11522;SDS011;40093;43.224;27.910;2022-12-24T10:54:29;24.17;;;20.60;;
11522;SDS011;40093;43.224;27.910;2022-12-24T10:57:03;22.57;;;17.53;;
11522;SDS011;40093;43.224;27.910;2022-12-24T10:59:34;19.17;;;16.60;;
11522;SDS011;40093;43.224;27.910;2022-12-24T11:02:23;21.70;;;18.10;;
11522;SDS011;40093;43.224;27.910;2022-12-24T11:04:53;24.63;;;18.80;;
11522;SDS011;40093;43.224;27.910;2022-12-24T11:07:21;20.17;;;17.70;;
11522;SDS011;40093;43.224;27.910;2022-12-24T11:09:53;24.30;;;16.53;;
11522;SDS011;40093;43.224;27.910;2022-12-24T11:12:22;23.93;;;19.90;;
11522;SDS011;40093;43.224;27.910;2022-12-24T11:14:58;21.90;;;16.70;;
11522;SDS011;40093;43.224;27.910;2022-12-24T11:17:27;98.27;;;74.87;;
11522;SDS011;40093;43.224;27.910;2022-12-24T11:19:55;48.40;;;37.53;;
11522;SDS011;40093;43.224;27.910;2022-12-24T11:22:24;27.37;;;24.30;;
11522;SDS011;40093;43.224;27.910;2022-12-24T11:24:56;28.50;;;20.83;;
11522;SDS011;40093;43.224;27.910;2022-12-24T11:27:28;23.73;;;18.13;;
11522;SDS011;40093;43.224;27.910;2022-12-24T11:30:12;20.10;;;15.80;;
11522;SDS011;40093;43.224;27.910;2022-12-24T11:32:46;24.50;;;15.40;;
11522;SDS011;40093;43.224;27.910;2022-12-24T11:35:16;26.93;;;21.53;;
11522;SDS011;40093;43.224;27.910;2022-12-24T11:37:46;20.80;;;17.10;;
11522;SDS011;40093;43.224;27.910;2022-12-24T11:40:19;27.60;;;18.40;;
11522;SDS011;40093;43.224;27.910;2022-12-24T11:42:49;23.60;;;17.60;;
11522;SDS011;40093;43.224;27.910;2022-12-24T11:45:19;21.50;;;16.57;;
11522;SDS011;40093;43.224;27.910;2022-12-24T11:47:48;20.77;;;16.10;;
11522;SDS011;40093;43.224;27.910;2022-12-24T11:50:22;21.80;;;15.00;;
11522;SDS011;40093;43.224;27.910;2022-12-24T11:52:57;17.53;;;14.10;;
11522;SDS011;40093;43.224;27.910;2022-12-24T11:55:33;17.70;;;12.03;;
11522;SDS011;40093;43.224;27.910;2022-12-24T11:58:11;20.67;;;15.17;;
11522;SDS011;40093;43.224;27.910;2022-12-24T12:00:44;24.77;;;16.07;;
11522;SDS011;40093;43.224;27.910;2022-12-24T12:03:18;22.73;;;17.13;;
11522;SDS011;40093;43.224;27.910;2022-12-24T12:05:55;24.27;;;17.63;;
11522;SDS011;40093;43.224;27.910;2022-12-24T12:08:25;23.97;;;18.13;;
11522;SDS011;40093;43.224;27.910;2022-12-24T12:10:54;28.13;;;21.60;;
11522;SDS011;40093;43.224;27.910;2022-12-24T12:13:25;26.57;;;20.07;;
11522;SDS011;40093;43.224;27.910;2022-12-24T12:16:00;27.03;;;18.60;;
11522;SDS011;40093;43.224;27.910;2022-12-24T12:18:37;19.30;;;14.10;;
11522;SDS011;40093;43.224;27.910;2022-12-24T12:21:08;43.50;;;30.53;;
11522;SDS011;40093;43.224;27.910;2022-12-24T12:23:43;15.40;;;10.23;;
11522;SDS011;40093;43.224;27.910;2022-12-24T12:26:14;9.77;;;8.00;;
11522;SDS011;40093;43.224;27.910;2022-12-24T12:28:48;8.87;;;7.00;;
11522;SDS011;40093;43.224;27.910;2022-12-24T12:31:21;18.10;;;14.57;;
11522;SDS011;40093;43.224;27.910;2022-12-24T12:33:53;19.37;;;13.67;;
11522;SDS011;40093;43.224;27.910;2022-12-24T12:36:25;8.13;;;7.33;;
11522;SDS011;40093;43.224;27.910;2022-12-24T12:38:58;7.70;;;6.70;;
11522;SDS011;40093;43.224;27.910;2022-12-24T12:41:28;8.43;;;6.63;;
11522;SDS011;40093;43.224;27.910;2022-12-24T12:44:27;9.63;;;6.90;;
11522;SDS011;40093;43.224;27.910;2022-12-24T12:47:24;8.53;;;6.17;;
11522;SDS011;40093;43.224;27.910;2022-12-24T12:50:13;7.83;;;6.20;;
11522;SDS011;40093;43.224;27.910;2022-12-24T12:52:56;6.90;;;6.00;;
11522;SDS011;40093;43.224;27.910;2022-12-24T12:55:39;7.93;;;6.30;;
11522;SDS011;40093;43.224;27.910;2022-12-24T12:58:15;14.17;;;12.63;;
11522;SDS011;40093;43.224;27.910;2022-12-24T13:00:46;12.80;;;8.63;;
11522;SDS011;40093;43.224;27.910;2022-12-24T13:06:25;8.37;;;6.27;;
11522;SDS011;40093;43.224;27.910;2022-12-24T13:12:12;9.43;;;7.47;;
11522;SDS011;40093;43.224;27.910;2022-12-24T13:14:55;10.87;;;6.90;;
11522;SDS011;40093;43.224;27.910;2022-12-24T13:17:43;10.00;;;7.70;;
11522;SDS011;40093;43.224;27.910;2022-12-24T13:20:23;20.63;;;17.07;;
11522;SDS011;40093;43.224;27.910;2022-12-24T13:22:56;19.23;;;13.63;;
11522;SDS011;40093;43.224;27.910;2022-12-24T13:25:28;12.80;;;10.67;;
11522;SDS011;40093;43.224;27.910;2022-12-24T13:28:13;10.27;;;7.60;;
11522;SDS011;40093;43.224;27.910;2022-12-24T13:30:41;8.67;;;7.43;;
11522;SDS011;40093;43.224;27.910;2022-12-24T13:33:09;11.63;;;9.00;;
11522;SDS011;40093;43.224;27.910;2022-12-24T13:35:54;13.70;;;8.70;;
11522;SDS011;40093;43.224;27.910;2022-12-24T13:38:29;11.67;;;8.33;;
11522;SDS011;40093;43.224;27.910;2022-12-24T13:44:15;11.13;;;9.40;;
11522;SDS011;40093;43.224;27.910;2022-12-24T13:46:57;20.03;;;13.53;;
11522;SDS011;40093;43.224;27.910;2022-12-24T13:49:40;13.60;;;10.33;;
11522;SDS011;40093;43.224;27.910;2022-12-24T13:52:17;13.17;;;10.47;;
11522;SDS011;40093;43.224;27.910;2022-12-24T13:55:00;16.67;;;14.23;;
11522;SDS011;40093;43.224;27.910;2022-12-24T13:57:34;16.67;;;13.53;;
11522;SDS011;40093;43.224;27.910;2022-12-24T14:00:05;10.73;;;9.43;;
11522;SDS011;40093;43.224;27.910;2022-12-24T14:02:49;12.13;;;9.87;;
11522;SDS011;40093;43.224;27.910;2022-12-24T14:05:21;12.43;;;10.63;;
11522;SDS011;40093;43.224;27.910;2022-12-24T14:07:53;21.47;;;14.97;;
11522;SDS011;40093;43.224;27.910;2022-12-24T14:10:22;20.03;;;14.63;;
11522;SDS011;40093;43.224;27.910;2022-12-24T14:12:52;21.47;;;14.63;;
11522;SDS011;40093;43.224;27.910;2022-12-24T14:18:15;26.87;;;21.17;;
11522;SDS011;40093;43.224;27.910;2022-12-24T14:20:46;38.10;;;27.33;;
11522;SDS011;40093;43.224;27.910;2022-12-24T14:23:17;26.00;;;21.07;;
11522;SDS011;40093;43.224;27.910;2022-12-24T14:25:53;21.50;;;15.37;;
11522;SDS011;40093;43.224;27.910;2022-12-24T14:28:24;17.73;;;12.53;;
11522;SDS011;40093;43.224;27.910;2022-12-24T14:31:03;16.83;;;12.07;;
11522;SDS011;40093;43.224;27.910;2022-12-24T14:33:39;13.87;;;10.30;;
11522;SDS011;40093;43.224;27.910;2022-12-24T14:36:06;61.87;;;47.53;;
11522;SDS011;40093;43.224;27.910;2022-12-24T14:38:33;14.37;;;10.83;;
11522;SDS011;40093;43.224;27.910;2022-12-24T14:41:03;12.00;;;8.20;;
11522;SDS011;40093;43.224;27.910;2022-12-24T14:43:49;14.07;;;8.60;;
11522;SDS011;40093;43.224;27.910;2022-12-24T14:46:22;23.43;;;18.50;;
11522;SDS011;40093;43.224;27.910;2022-12-24T14:48:55;12.40;;;8.93;;
11522;SDS011;40093;43.224;27.910;2022-12-24T14:51:31;7.37;;;6.33;;